KTIX/TIX METAR and TAF weather

Enter ICAO airport designator
Station Type Date Time Source
KTIX METAR 2019/06/16 20:47 UTC NOAA

KTIX 162047Z VRB04KT 6SM BR SCT080 28/25 A3004


Station Type Date Time Source
KTIX Decoded METAR 2019/06/16 20:47 UTC NOAA

Titusville, FL, United States (KTIX) 28-31N 080-48W
Jun 16, 2019 - 04:47 PM EDT / 2019.06.16 2047 UTC
Wind: Variable at 5 MPH (4 KT):0
Visibility: 6 mile(s):0
Sky conditions: partly cloudy
Weather: mist
Temperature: 82 F (28 C)
Dew Point: 77 F (25 C)
Relative Humidity: 83%
Pressure (altimeter): 30.04 in. Hg (1017 hPa)
ob: KTIX 162047Z VRB04KT 6SM BR SCT080 28/25 A3004
cycle: 21

Station Type Date Time Source
KTIX TAF 2019/06/16 18:22 UTC NOAA

TAF KTIX 161720Z 1618/1718 12010KT P6SM VCSH SCT030 BKN100
FM162100 12009KT P6SM SCT035 SCT200
FM170000 10004KT P6SM FEW035 SCT200
FM171000 09005KT P6SM VCSH FEW035 BKN100

Example: see airport list